sensor_id;sensor_type;location;lat;lon;timestamp;P1;durP1;ratioP1;P2;durP2;ratioP2
8478;SDS011;4276;49.354;6.804;2022-11-20T00:01:17;10.90;;;9.90;;
8478;SDS011;4276;49.354;6.804;2022-11-20T00:03:45;11.15;;;10.15;;
8478;SDS011;4276;49.354;6.804;2022-11-20T00:06:13;10.52;;;9.52;;
8478;SDS011;4276;49.354;6.804;2022-11-20T00:08:41;11.18;;;10.00;;
8478;SDS011;4276;49.354;6.804;2022-11-20T00:11:09;10.90;;;9.80;;
8478;SDS011;4276;49.354;6.804;2022-11-20T00:13:42;10.82;;;9.82;;
8478;SDS011;4276;49.354;6.804;2022-11-20T00:16:09;11.13;;;10.02;;
8478;SDS011;4276;49.354;6.804;2022-11-20T00:18:37;10.07;;;9.18;;
8478;SDS011;4276;49.354;6.804;2022-11-20T00:21:04;10.40;;;9.35;;
8478;SDS011;4276;49.354;6.804;2022-11-20T00:23:35;11.30;;;10.20;;
8478;SDS011;4276;49.354;6.804;2022-11-20T00:26:05;11.27;;;9.85;;
8478;SDS011;4276;49.354;6.804;2022-11-20T00:28:33;12.10;;;10.90;;
8478;SDS011;4276;49.354;6.804;2022-11-20T00:31:01;11.40;;;10.27;;
8478;SDS011;4276;49.354;6.804;2022-11-20T00:33:32;10.10;;;9.10;;
8478;SDS011;4276;49.354;6.804;2022-11-20T00:36:08;10.15;;;9.15;;
8478;SDS011;4276;49.354;6.804;2022-11-20T00:38:36;10.57;;;9.48;;
8478;SDS011;4276;49.354;6.804;2022-11-20T00:41:07;10.43;;;9.30;;
8478;SDS011;4276;49.354;6.804;2022-11-20T00:43:34;10.98;;;9.88;;
8478;SDS011;4276;49.354;6.804;2022-11-20T00:46:05;10.52;;;9.63;;
8478;SDS011;4276;49.354;6.804;2022-11-20T00:48:34;10.15;;;9.15;;
8478;SDS011;4276;49.354;6.804;2022-11-20T00:51:00;9.98;;;9.07;;
8478;SDS011;4276;49.354;6.804;2022-11-20T00:53:27;9.77;;;8.98;;
8478;SDS011;4276;49.354;6.804;2022-11-20T00:56:00;10.13;;;9.13;;
8478;SDS011;4276;49.354;6.804;2022-11-20T00:58:32;9.82;;;8.93;;
8478;SDS011;4276;49.354;6.804;2022-11-20T01:01:00;10.68;;;8.45;;
8478;SDS011;4276;49.354;6.804;2022-11-20T01:03:31;9.02;;;8.23;;
8478;SDS011;4276;49.354;6.804;2022-11-20T01:05:59;9.32;;;8.43;;
8478;SDS011;4276;49.354;6.804;2022-11-20T01:08:31;9.15;;;8.27;;
8478;SDS011;4276;49.354;6.804;2022-11-20T01:10:59;9.00;;;8.10;;
8478;SDS011;4276;49.354;6.804;2022-11-20T01:13:26;9.05;;;8.20;;
8478;SDS011;4276;49.354;6.804;2022-11-20T01:18:36;9.07;;;8.13;;
8478;SDS011;4276;49.354;6.804;2022-11-20T01:21:08;8.45;;;7.65;;
8478;SDS011;4276;49.354;6.804;2022-11-20T01:23:37;8.43;;;7.63;;
8478;SDS011;4276;49.354;6.804;2022-11-20T01:26:09;8.43;;;7.53;;
8478;SDS011;4276;49.354;6.804;2022-11-20T01:28:40;8.38;;;7.57;;
8478;SDS011;4276;49.354;6.804;2022-11-20T01:31:15;9.07;;;7.60;;
8478;SDS011;4276;49.354;6.804;2022-11-20T01:33:47;8.27;;;7.50;;
8478;SDS011;4276;49.354;6.804;2022-11-20T01:36:15;7.47;;;6.78;;
8478;SDS011;4276;49.354;6.804;2022-11-20T01:38:41;7.18;;;6.30;;
8478;SDS011;4276;49.354;6.804;2022-11-20T01:41:09;7.47;;;6.85;;
8478;SDS011;4276;49.354;6.804;2022-11-20T01:43:36;8.30;;;7.50;;
8478;SDS011;4276;49.354;6.804;2022-11-20T01:51:17;8.27;;;7.47;;
8478;SDS011;4276;49.354;6.804;2022-11-20T01:53:47;7.45;;;6.78;;
8478;SDS011;4276;49.354;6.804;2022-11-20T01:56:14;7.28;;;6.68;;
8478;SDS011;4276;49.354;6.804;2022-11-20T01:58:44;7.50;;;6.80;;
8478;SDS011;4276;49.354;6.804;2022-11-20T02:01:16;7.55;;;6.97;;
8478;SDS011;4276;49.354;6.804;2022-11-20T02:03:42;7.15;;;6.45;;
8478;SDS011;4276;49.354;6.804;2022-11-20T02:08:39;6.95;;;6.25;;
8478;SDS011;4276;49.354;6.804;2022-11-20T02:11:06;7.25;;;6.65;;
8478;SDS011;4276;49.354;6.804;2022-11-20T02:13:33;7.72;;;6.88;;
8478;SDS011;4276;49.354;6.804;2022-11-20T02:18:55;7.05;;;6.53;;
8478;SDS011;4276;49.354;6.804;2022-11-20T02:26:19;6.60;;;6.10;;
8478;SDS011;4276;49.354;6.804;2022-11-20T02:28:46;6.88;;;6.18;;
8478;SDS011;4276;49.354;6.804;2022-11-20T02:31:12;6.95;;;6.25;;
8478;SDS011;4276;49.354;6.804;2022-11-20T02:33:39;7.00;;;6.40;;
8478;SDS011;4276;49.354;6.804;2022-11-20T02:36:07;6.05;;;5.53;;
8478;SDS011;4276;49.354;6.804;2022-11-20T02:38:34;6.53;;;6.03;;
8478;SDS011;4276;49.354;6.804;2022-11-20T02:41:01;6.32;;;5.72;;
8478;SDS011;4276;49.354;6.804;2022-11-20T02:43:27;6.18;;;5.55;;
8478;SDS011;4276;49.354;6.804;2022-11-20T02:45:54;7.18;;;5.60;;
8478;SDS011;4276;49.354;6.804;2022-11-20T02:48:20;7.00;;;5.57;;
8478;SDS011;4276;49.354;6.804;2022-11-20T02:50:50;6.43;;;5.88;;
8478;SDS011;4276;49.354;6.804;2022-11-20T02:53:16;6.43;;;5.50;;
8478;SDS011;4276;49.354;6.804;2022-11-20T02:55:43;5.90;;;5.40;;
8478;SDS011;4276;49.354;6.804;2022-11-20T02:58:11;5.50;;;5.10;;
8478;SDS011;4276;49.354;6.804;2022-11-20T03:00:38;5.82;;;5.40;;
8478;SDS011;4276;49.354;6.804;2022-11-20T03:03:04;6.20;;;5.57;;
8478;SDS011;4276;49.354;6.804;2022-11-20T03:05:30;6.90;;;6.25;;
8478;SDS011;4276;49.354;6.804;2022-11-20T03:07:57;6.03;;;5.53;;
8478;SDS011;4276;49.354;6.804;2022-11-20T03:10:23;6.55;;;5.63;;
8478;SDS011;4276;49.354;6.804;2022-11-20T03:12:55;5.90;;;5.40;;
8478;SDS011;4276;49.354;6.804;2022-11-20T03:15:22;6.00;;;5.50;;
8478;SDS011;4276;49.354;6.804;2022-11-20T03:17:52;5.70;;;5.20;;
8478;SDS011;4276;49.354;6.804;2022-11-20T03:20:19;6.07;;;5.40;;
8478;SDS011;4276;49.354;6.804;2022-11-20T03:22:46;6.20;;;5.60;;
8478;SDS011;4276;49.354;6.804;2022-11-20T03:25:12;6.28;;;5.50;;
8478;SDS011;4276;49.354;6.804;2022-11-20T03:27:38;6.15;;;5.57;;
8478;SDS011;4276;49.354;6.804;2022-11-20T03:30:05;6.07;;;5.60;;
8478;SDS011;4276;49.354;6.804;2022-11-20T03:32:32;6.60;;;6.00;;
8478;SDS011;4276;49.354;6.804;2022-11-20T03:34:58;6.25;;;5.75;;
8478;SDS011;4276;49.354;6.804;2022-11-20T03:37:25;5.90;;;5.30;;
8478;SDS011;4276;49.354;6.804;2022-11-20T03:39:51;6.57;;;5.88;;
8478;SDS011;4276;49.354;6.804;2022-11-20T03:42:18;6.88;;;6.28;;
8478;SDS011;4276;49.354;6.804;2022-11-20T03:45:03;6.32;;;5.78;;
8478;SDS011;4276;49.354;6.804;2022-11-20T03:47:30;7.65;;;6.25;;
8478;SDS011;4276;49.354;6.804;2022-11-20T03:49:56;7.35;;;6.65;;
8478;SDS011;4276;49.354;6.804;2022-11-20T03:52:23;7.43;;;6.72;;
8478;SDS011;4276;49.354;6.804;2022-11-20T03:54:49;7.05;;;6.35;;
8478;SDS011;4276;49.354;6.804;2022-11-20T03:57:16;6.15;;;5.70;;
8478;SDS011;4276;49.354;6.804;2022-11-20T03:59:42;7.28;;;6.68;;
8478;SDS011;4276;49.354;6.804;2022-11-20T04:02:08;6.03;;;5.63;;
8478;SDS011;4276;49.354;6.804;2022-11-20T04:04:35;6.50;;;6.00;;
8478;SDS011;4276;49.354;6.804;2022-11-20T04:07:02;5.47;;;4.97;;
8478;SDS011;4276;49.354;6.804;2022-11-20T04:09:28;6.05;;;5.28;;
8478;SDS011;4276;49.354;6.804;2022-11-20T04:11:54;5.65;;;5.25;;
8478;SDS011;4276;49.354;6.804;2022-11-20T04:14:21;5.82;;;5.40;;
8478;SDS011;4276;49.354;6.804;2022-11-20T04:16:47;6.22;;;5.72;;
8478;SDS011;4276;49.354;6.804;2022-11-20T04:19:14;5.70;;;5.20;;
8478;SDS011;4276;49.354;6.804;2022-11-20T04:21:42;6.05;;;5.45;;
8478;SDS011;4276;49.354;6.804;2022-11-20T04:24:09;6.00;;;5.47;;
8478;SDS011;4276;49.354;6.804;2022-11-20T04:26:36;5.80;;;5.30;;
8478;SDS011;4276;49.354;6.804;2022-11-20T04:29:03;5.20;;;4.80;;
8478;SDS011;4276;49.354;6.804;2022-11-20T04:31:31;5.70;;;5.30;;
8478;SDS011;4276;49.354;6.804;2022-11-20T04:33:59;6.07;;;5.35;;
8478;SDS011;4276;49.354;6.804;2022-11-20T04:36:27;5.93;;;5.43;;
8478;SDS011;4276;49.354;6.804;2022-11-20T04:38:55;5.88;;;5.38;;
8478;SDS011;4276;49.354;6.804;2022-11-20T04:41:29;6.50;;;5.90;;
8478;SDS011;4276;49.354;6.804;2022-11-20T04:43:58;6.43;;;5.93;;
8478;SDS011;4276;49.354;6.804;2022-11-20T04:46:29;7.05;;;6.35;;
8478;SDS011;4276;49.354;6.804;2022-11-20T04:49:00;6.53;;;5.93;;
8478;SDS011;4276;49.354;6.804;2022-11-20T04:51:26;7.45;;;6.75;;
8478;SDS011;4276;49.354;6.804;2022-11-20T04:53:53;6.68;;;6.18;;
8478;SDS011;4276;49.354;6.804;2022-11-20T04:56:19;7.50;;;6.90;;
8478;SDS011;4276;49.354;6.804;2022-11-20T04:58:46;7.70;;;7.03;;
8478;SDS011;4276;49.354;6.804;2022-11-20T05:01:13;7.50;;;6.90;;
8478;SDS011;4276;49.354;6.804;2022-11-20T05:03:42;7.80;;;7.00;;
8478;SDS011;4276;49.354;6.804;2022-11-20T05:06:10;7.55;;;6.93;;
8478;SDS011;4276;49.354;6.804;2022-11-20T05:08:41;7.38;;;6.68;;
8478;SDS011;4276;49.354;6.804;2022-11-20T05:11:15;7.00;;;6.43;;
8478;SDS011;4276;49.354;6.804;2022-11-20T05:13:43;7.10;;;6.50;;
8478;SDS011;4276;49.354;6.804;2022-11-20T05:16:14;6.35;;;5.85;;
8478;SDS011;4276;49.354;6.804;2022-11-20T05:18:44;6.30;;;5.80;;
8478;SDS011;4276;49.354;6.804;2022-11-20T05:21:11;7.43;;;6.13;;
8478;SDS011;4276;49.354;6.804;2022-11-20T05:23:38;7.10;;;6.50;;
8478;SDS011;4276;49.354;6.804;2022-11-20T05:26:06;7.05;;;6.45;;
8478;SDS011;4276;49.354;6.804;2022-11-20T05:28:34;7.15;;;6.65;;
8478;SDS011;4276;49.354;6.804;2022-11-20T05:31:04;10.10;;;7.30;;
8478;SDS011;4276;49.354;6.804;2022-11-20T05:33:35;7.82;;;7.10;;
8478;SDS011;4276;49.354;6.804;2022-11-20T05:36:02;9.05;;;7.80;;
8478;SDS011;4276;49.354;6.804;2022-11-20T05:38:29;7.80;;;7.20;;
8478;SDS011;4276;49.354;6.804;2022-11-20T05:41:02;8.07;;;7.47;;
8478;SDS011;4276;49.354;6.804;2022-11-20T05:43:32;9.15;;;8.35;;
8478;SDS011;4276;49.354;6.804;2022-11-20T05:45:59;8.45;;;7.75;;
8478;SDS011;4276;49.354;6.804;2022-11-20T05:48:26;9.43;;;8.63;;
8478;SDS011;4276;49.354;6.804;2022-11-20T05:50:52;14.02;;;12.55;;
8478;SDS011;4276;49.354;6.804;2022-11-20T05:53:19;12.40;;;11.35;;
8478;SDS011;4276;49.354;6.804;2022-11-20T05:55:45;17.88;;;16.25;;
8478;SDS011;4276;49.354;6.804;2022-11-20T05:58:12;16.65;;;15.05;;
8478;SDS011;4276;49.354;6.804;2022-11-20T06:00:38;14.10;;;12.80;;
8478;SDS011;4276;49.354;6.804;2022-11-20T06:03:05;11.63;;;10.55;;
8478;SDS011;4276;49.354;6.804;2022-11-20T06:05:33;10.60;;;9.80;;
8478;SDS011;4276;49.354;6.804;2022-11-20T06:08:00;10.93;;;9.93;;
8478;SDS011;4276;49.354;6.804;2022-11-20T06:10:26;11.38;;;10.20;;
8478;SDS011;4276;49.354;6.804;2022-11-20T06:12:53;13.52;;;12.13;;
8478;SDS011;4276;49.354;6.804;2022-11-20T06:15:19;14.15;;;12.75;;
8478;SDS011;4276;49.354;6.804;2022-11-20T06:17:45;14.18;;;12.80;;
8478;SDS011;4276;49.354;6.804;2022-11-20T06:20:12;14.15;;;12.85;;
8478;SDS011;4276;49.354;6.804;2022-11-20T06:22:39;13.02;;;11.70;;
8478;SDS011;4276;49.354;6.804;2022-11-20T06:25:05;12.57;;;11.43;;
8478;SDS011;4276;49.354;6.804;2022-11-20T06:27:32;12.30;;;11.20;;
8478;SDS011;4276;49.354;6.804;2022-11-20T06:29:58;11.18;;;10.18;;
8478;SDS011;4276;49.354;6.804;2022-11-20T06:32:24;10.30;;;9.30;;
8478;SDS011;4276;49.354;6.804;2022-11-20T06:34:51;10.68;;;9.68;;
8478;SDS011;4276;49.354;6.804;2022-11-20T06:37:17;8.48;;;7.78;;
8478;SDS011;4276;49.354;6.804;2022-11-20T06:39:43;8.38;;;7.57;;
8478;SDS011;4276;49.354;6.804;2022-11-20T06:42:10;7.55;;;6.85;;
8478;SDS011;4276;49.354;6.804;2022-11-20T06:44:36;7.50;;;6.05;;
8478;SDS011;4276;49.354;6.804;2022-11-20T06:47:03;6.47;;;5.90;;
8478;SDS011;4276;49.354;6.804;2022-11-20T06:49:29;6.50;;;6.00;;
8478;SDS011;4276;49.354;6.804;2022-11-20T06:51:56;5.72;;;5.22;;
8478;SDS011;4276;49.354;6.804;2022-11-20T06:54:22;5.97;;;5.57;;
8478;SDS011;4276;49.354;6.804;2022-11-20T06:56:49;7.00;;;6.40;;
8478;SDS011;4276;49.354;6.804;2022-11-20T06:59:15;6.82;;;6.22;;
8478;SDS011;4276;49.354;6.804;2022-11-20T07:01:42;6.28;;;5.78;;
8478;SDS011;4276;49.354;6.804;2022-11-20T07:04:08;6.50;;;5.90;;
8478;SDS011;4276;49.354;6.804;2022-11-20T07:06:35;6.18;;;5.68;;
8478;SDS011;4276;49.354;6.804;2022-11-20T07:09:01;6.40;;;5.80;;
8478;SDS011;4276;49.354;6.804;2022-11-20T07:11:28;6.43;;;5.82;;
8478;SDS011;4276;49.354;6.804;2022-11-20T07:13:54;5.82;;;5.38;;
8478;SDS011;4276;49.354;6.804;2022-11-20T07:16:21;6.50;;;5.90;;
8478;SDS011;4276;49.354;6.804;2022-11-20T07:18:47;5.95;;;5.38;;
8478;SDS011;4276;49.354;6.804;2022-11-20T07:21:16;6.35;;;5.85;;
8478;SDS011;4276;49.354;6.804;2022-11-20T07:23:42;7.13;;;6.53;;
8478;SDS011;4276;49.354;6.804;2022-11-20T07:26:09;6.95;;;6.25;;
8478;SDS011;4276;49.354;6.804;2022-11-20T07:28:37;6.97;;;6.35;;
8478;SDS011;4276;49.354;6.804;2022-11-20T07:31:03;6.65;;;5.93;;
8478;SDS011;4276;49.354;6.804;2022-11-20T07:33:30;6.65;;;6.18;;
8478;SDS011;4276;49.354;6.804;2022-11-20T07:35:58;7.65;;;6.97;;
8478;SDS011;4276;49.354;6.804;2022-11-20T07:38:26;6.85;;;6.22;;
8478;SDS011;4276;49.354;6.804;2022-11-20T07:40:55;6.80;;;6.30;;
8478;SDS011;4276;49.354;6.804;2022-11-20T07:43:23;7.22;;;6.63;;
8478;SDS011;4276;49.354;6.804;2022-11-20T07:45:51;6.78;;;6.18;;
8478;SDS011;4276;49.354;6.804;2022-11-20T07:48:17;8.63;;;7.18;;
8478;SDS011;4276;49.354;6.804;2022-11-20T07:50:44;8.13;;;7.35;;
8478;SDS011;4276;49.354;6.804;2022-11-20T07:53:10;9.10;;;8.20;;
8478;SDS011;4276;49.354;6.804;2022-11-20T07:55:38;8.15;;;7.40;;
8478;SDS011;4276;49.354;6.804;2022-11-20T07:58:04;7.55;;;6.57;;
8478;SDS011;4276;49.354;6.804;2022-11-20T08:00:31;6.68;;;6.15;;
8478;SDS011;4276;49.354;6.804;2022-11-20T08:02:57;6.93;;;6.32;;
8478;SDS011;4276;49.354;6.804;2022-11-20T08:05:24;7.25;;;6.70;;
8478;SDS011;4276;49.354;6.804;2022-11-20T08:07:51;7.00;;;6.40;;
8478;SDS011;4276;49.354;6.804;2022-11-20T08:10:17;6.78;;;6.28;;
8478;SDS011;4276;49.354;6.804;2022-11-20T08:12:49;6.45;;;5.85;;
8478;SDS011;4276;49.354;6.804;2022-11-20T08:15:36;6.20;;;5.60;;
8478;SDS011;4276;49.354;6.804;2022-11-20T08:18:03;6.13;;;5.53;;
8478;SDS011;4276;49.354;6.804;2022-11-20T08:20:57;5.22;;;4.82;;
8478;SDS011;4276;49.354;6.804;2022-11-20T08:23:24;5.53;;;4.97;;
8478;SDS011;4276;49.354;6.804;2022-11-20T08:25:50;6.10;;;5.50;;
8478;SDS011;4276;49.354;6.804;2022-11-20T08:28:17;7.47;;;5.53;;
8478;SDS011;4276;49.354;6.804;2022-11-20T08:30:47;5.97;;;5.45;;
8478;SDS011;4276;49.354;6.804;2022-11-20T08:33:13;5.93;;;4.97;;
8478;SDS011;4276;49.354;6.804;2022-11-20T08:35:40;5.82;;;5.30;;
8478;SDS011;4276;49.354;6.804;2022-11-20T08:38:08;5.32;;;4.47;;
8478;SDS011;4276;49.354;6.804;2022-11-20T08:40:35;5.05;;;4.55;;
8478;SDS011;4276;49.354;6.804;2022-11-20T08:43:01;5.43;;;4.93;;
8478;SDS011;4276;49.354;6.804;2022-11-20T08:45:28;5.10;;;4.70;;
8478;SDS011;4276;49.354;6.804;2022-11-20T08:47:59;6.28;;;5.43;;
8478;SDS011;4276;49.354;6.804;2022-11-20T08:50:27;6.15;;;5.10;;
8478;SDS011;4276;49.354;6.804;2022-11-20T08:52:53;7.65;;;5.30;;
8478;SDS011;4276;49.354;6.804;2022-11-20T08:55:20;6.07;;;4.97;;
8478;SDS011;4276;49.354;6.804;2022-11-20T08:57:46;5.72;;;5.20;;
8478;SDS011;4276;49.354;6.804;2022-11-20T09:00:16;7.85;;;4.80;;
8478;SDS011;4276;49.354;6.804;2022-11-20T09:02:43;5.90;;;5.20;;
8478;SDS011;4276;49.354;6.804;2022-11-20T09:05:09;7.22;;;5.05;;
8478;SDS011;4276;49.354;6.804;2022-11-20T09:07:36;6.75;;;6.00;;
8478;SDS011;4276;49.354;6.804;2022-11-20T09:10:02;7.88;;;6.25;;
8478;SDS011;4276;49.354;6.804;2022-11-20T09:12:49;5.80;;;5.30;;
8478;SDS011;4276;49.354;6.804;2022-11-20T09:15:16;5.85;;;5.35;;
8478;SDS011;4276;49.354;6.804;2022-11-20T09:17:50;5.60;;;5.10;;
8478;SDS011;4276;49.354;6.804;2022-11-20T09:20:17;5.53;;;4.93;;
8478;SDS011;4276;49.354;6.804;2022-11-20T09:22:44;5.95;;;5.43;;
8478;SDS011;4276;49.354;6.804;2022-11-20T09:25:11;5.68;;;5.03;;
8478;SDS011;4276;49.354;6.804;2022-11-20T09:27:37;6.82;;;6.18;;
8478;SDS011;4276;49.354;6.804;2022-11-20T09:30:04;6.45;;;5.55;;
8478;SDS011;4276;49.354;6.804;2022-11-20T09:32:31;6.28;;;5.63;;
8478;SDS011;4276;49.354;6.804;2022-11-20T09:34:57;9.40;;;5.90;;
8478;SDS011;4276;49.354;6.804;2022-11-20T09:37:29;8.52;;;6.00;;
8478;SDS011;4276;49.354;6.804;2022-11-20T09:39:55;6.15;;;5.57;;
8478;SDS011;4276;49.354;6.804;2022-11-20T09:45:06;7.43;;;5.30;;
8478;SDS011;4276;49.354;6.804;2022-11-20T09:52:55;9.38;;;5.65;;
8478;SDS011;4276;49.354;6.804;2022-11-20T09:55:31;8.88;;;5.60;;
8478;SDS011;4276;49.354;6.804;2022-11-20T09:57:58;7.95;;;5.70;;
8478;SDS011;4276;49.354;6.804;2022-11-20T10:00:25;6.05;;;5.45;;
8478;SDS011;4276;49.354;6.804;2022-11-20T10:02:59;7.47;;;5.25;;
8478;SDS011;4276;49.354;6.804;2022-11-20T10:05:34;6.00;;;5.40;;
8478;SDS011;4276;49.354;6.804;2022-11-20T10:10:50;5.90;;;5.20;;
8478;SDS011;4276;49.354;6.804;2022-11-20T10:13:23;5.22;;;4.70;;
8478;SDS011;4276;49.354;6.804;2022-11-20T10:29:34;8.07;;;5.47;;
8478;SDS011;4276;49.354;6.804;2022-11-20T10:32:04;6.43;;;5.68;;
8478;SDS011;4276;49.354;6.804;2022-11-20T10:37:27;6.43;;;4.78;;
8478;SDS011;4276;49.354;6.804;2022-11-20T10:45:31;7.63;;;5.82;;
8478;SDS011;4276;49.354;6.804;2022-11-20T10:51:27;7.00;;;4.97;;
8478;SDS011;4276;49.354;6.804;2022-11-20T10:53:54;5.68;;;5.18;;
8478;SDS011;4276;49.354;6.804;2022-11-20T11:02:19;5.47;;;3.53;;
8478;SDS011;4276;49.354;6.804;2022-11-20T11:04:49;5.30;;;3.15;;
8478;SDS011;4276;49.354;6.804;2022-11-20T11:07:21;7.40;;;4.70;;
8478;SDS011;4276;49.354;6.804;2022-11-20T11:09:51;6.22;;;4.72;;
8478;SDS011;4276;49.354;6.804;2022-11-20T11:12:20;7.00;;;4.70;;
8478;SDS011;4276;49.354;6.804;2022-11-20T11:17:20;5.50;;;3.22;;
8478;SDS011;4276;49.354;6.804;2022-11-20T11:19:59;4.03;;;3.22;;
8478;SDS011;4276;49.354;6.804;2022-11-20T11:22:34;4.70;;;3.38;;
8478;SDS011;4276;49.354;6.804;2022-11-20T11:25:07;3.75;;;3.05;;
8478;SDS011;4276;49.354;6.804;2022-11-20T11:27:46;5.63;;;3.30;;
8478;SDS011;4276;49.354;6.804;2022-11-20T11:30:14;4.00;;;3.08;;
8478;SDS011;4276;49.354;6.804;2022-11-20T11:32:42;4.82;;;4.13;;
8478;SDS011;4276;49.354;6.804;2022-11-20T11:35:19;8.68;;;7.35;;
8478;SDS011;4276;49.354;6.804;2022-11-20T11:37:53;5.78;;;4.32;;
8478;SDS011;4276;49.354;6.804;2022-11-20T11:40:27;3.58;;;2.72;;
8478;SDS011;4276;49.354;6.804;2022-11-20T11:42:57;3.55;;;2.25;;
8478;SDS011;4276;49.354;6.804;2022-11-20T11:45:25;3.30;;;2.60;;
8478;SDS011;4276;49.354;6.804;2022-11-20T11:47:53;2.67;;;2.47;;
8478;SDS011;4276;49.354;6.804;2022-11-20T11:50:24;3.95;;;2.95;;
8478;SDS011;4276;49.354;6.804;2022-11-20T11:55:45;3.55;;;2.10;;
8478;SDS011;4276;49.354;6.804;2022-11-20T12:06:53;3.95;;;1.70;;
8478;SDS011;4276;49.354;6.804;2022-11-20T12:09:26;2.00;;;1.83;;
8478;SDS011;4276;49.354;6.804;2022-11-20T12:12:12;2.60;;;2.40;;
8478;SDS011;4276;49.354;6.804;2022-11-20T12:15:11;3.63;;;2.30;;
8478;SDS011;4276;49.354;6.804;2022-11-20T12:17:39;4.03;;;2.85;;
8478;SDS011;4276;49.354;6.804;2022-11-20T12:20:11;2.75;;;2.10;;
8478;SDS011;4276;49.354;6.804;2022-11-20T12:30:45;2.33;;;2.00;;
8478;SDS011;4276;49.354;6.804;2022-11-20T12:36:21;3.10;;;2.60;;
8478;SDS011;4276;49.354;6.804;2022-11-20T12:47:49;4.20;;;2.35;;
8478;SDS011;4276;49.354;6.804;2022-11-20T13:04:27;6.45;;;3.60;;
8478;SDS011;4276;49.354;6.804;2022-11-20T13:06:58;3.03;;;2.83;;
8478;SDS011;4276;49.354;6.804;2022-11-20T13:09:26;5.82;;;2.75;;
8478;SDS011;4276;49.354;6.804;2022-11-20T13:18:23;4.13;;;1.73;;
8478;SDS011;4276;49.354;6.804;2022-11-20T13:20:49;2.97;;;1.77;;
8478;SDS011;4276;49.354;6.804;2022-11-20T13:23:23;2.45;;;1.95;;
8478;SDS011;4276;49.354;6.804;2022-11-20T13:26:02;2.53;;;1.73;;
8478;SDS011;4276;49.354;6.804;2022-11-20T13:28:29;3.78;;;1.90;;
8478;SDS011;4276;49.354;6.804;2022-11-20T13:30:56;5.65;;;2.60;;
8478;SDS011;4276;49.354;6.804;2022-11-20T13:33:31;2.97;;;2.67;;
8478;SDS011;4276;49.354;6.804;2022-11-20T13:38:40;2.58;;;2.38;;
8478;SDS011;4276;49.354;6.804;2022-11-20T13:41:09;2.95;;;2.28;;
8478;SDS011;4276;49.354;6.804;2022-11-20T13:44:04;3.13;;;2.60;;
8478;SDS011;4276;49.354;6.804;2022-11-20T13:46:42;3.72;;;2.40;;
8478;SDS011;4276;49.354;6.804;2022-11-20T13:51:44;4.00;;;3.70;;
8478;SDS011;4276;49.354;6.804;2022-11-20T13:57:07;2.83;;;2.28;;
8478;SDS011;4276;49.354;6.804;2022-11-20T14:02:34;15.68;;;12.30;;
8478;SDS011;4276;49.354;6.804;2022-11-20T14:05:00;8.05;;;6.95;;
8478;SDS011;4276;49.354;6.804;2022-11-20T14:07:39;3.28;;;2.97;;
8478;SDS011;4276;49.354;6.804;2022-11-20T14:10:20;4.72;;;2.80;;
8478;SDS011;4276;49.354;6.804;2022-11-20T14:12:57;3.22;;;2.20;;
8478;SDS011;4276;49.354;6.804;2022-11-20T14:15:25;2.47;;;2.28;;
8478;SDS011;4276;49.354;6.804;2022-11-20T14:17:59;3.00;;;2.10;;
8478;SDS011;4276;49.354;6.804;2022-11-20T14:20:27;4.25;;;2.30;;
8478;SDS011;4276;49.354;6.804;2022-11-20T14:22:54;3.30;;;2.50;;
8478;SDS011;4276;49.354;6.804;2022-11-20T14:25:25;4.25;;;2.80;;
8478;SDS011;4276;49.354;6.804;2022-11-20T14:27:57;2.58;;;1.90;;
8478;SDS011;4276;49.354;6.804;2022-11-20T14:30:26;4.35;;;2.30;;
8478;SDS011;4276;49.354;6.804;2022-11-20T14:33:03;2.50;;;2.30;;
8478;SDS011;4276;49.354;6.804;2022-11-20T14:35:33;3.30;;;2.10;;
8478;SDS011;4276;49.354;6.804;2022-11-20T14:38:01;4.40;;;2.40;;
8478;SDS011;4276;49.354;6.804;2022-11-20T14:40:32;3.63;;;2.65;;
8478;SDS011;4276;49.354;6.804;2022-11-20T14:46:09;7.72;;;5.50;;
8478;SDS011;4276;49.354;6.804;2022-11-20T14:48:53;3.88;;;3.03;;
8478;SDS011;4276;49.354;6.804;2022-11-20T14:51:32;2.55;;;2.17;;
8478;SDS011;4276;49.354;6.804;2022-11-20T14:56:42;3.60;;;2.30;;
8478;SDS011;4276;49.354;6.804;2022-11-20T14:59:27;2.38;;;2.17;;
8478;SDS011;4276;49.354;6.804;2022-11-20T15:02:03;4.55;;;2.42;;
8478;SDS011;4276;49.354;6.804;2022-11-20T15:04:31;3.40;;;2.38;;
8478;SDS011;4276;49.354;6.804;2022-11-20T15:06:58;5.30;;;2.70;;
8478;SDS011;4276;49.354;6.804;2022-11-20T15:09:25;3.38;;;2.55;;
8478;SDS011;4276;49.354;6.804;2022-11-20T15:11:55;10.05;;;6.22;;
8478;SDS011;4276;49.354;6.804;2022-11-20T15:14:24;6.18;;;3.85;;
8478;SDS011;4276;49.354;6.804;2022-11-20T15:16:51;6.22;;;4.20;;
8478;SDS011;4276;49.354;6.804;2022-11-20T15:19:22;4.13;;;2.97;;
8478;SDS011;4276;49.354;6.804;2022-11-20T15:21:50;6.95;;;4.35;;
8478;SDS011;4276;49.354;6.804;2022-11-20T15:24:16;7.95;;;4.72;;
8478;SDS011;4276;49.354;6.804;2022-11-20T15:26:43;9.43;;;5.55;;
8478;SDS011;4276;49.354;6.804;2022-11-20T15:29:14;10.38;;;9.35;;
8478;SDS011;4276;49.354;6.804;2022-11-20T15:31:44;4.75;;;3.63;;
8478;SDS011;4276;49.354;6.804;2022-11-20T15:34:11;3.63;;;2.80;;
8478;SDS011;4276;49.354;6.804;2022-11-20T15:36:39;3.35;;;3.05;;
8478;SDS011;4276;49.354;6.804;2022-11-20T15:39:06;4.50;;;4.10;;
8478;SDS011;4276;49.354;6.804;2022-11-20T15:41:35;2.65;;;1.67;;
8478;SDS011;4276;49.354;6.804;2022-11-20T15:44:02;3.15;;;2.20;;
8478;SDS011;4276;49.354;6.804;2022-11-20T15:46:34;4.53;;;3.17;;
8478;SDS011;4276;49.354;6.804;2022-11-20T15:49:04;5.35;;;4.00;;
8478;SDS011;4276;49.354;6.804;2022-11-20T15:51:31;2.53;;;2.33;;
8478;SDS011;4276;49.354;6.804;2022-11-20T15:53:59;5.70;;;3.05;;
8478;SDS011;4276;49.354;6.804;2022-11-20T15:56:26;5.13;;;3.28;;
8478;SDS011;4276;49.354;6.804;2022-11-20T15:58:52;4.60;;;3.30;;
8478;SDS011;4276;49.354;6.804;2022-11-20T16:01:20;4.88;;;3.78;;
8478;SDS011;4276;49.354;6.804;2022-11-20T16:03:47;5.25;;;3.65;;
8478;SDS011;4276;49.354;6.804;2022-11-20T16:06:14;4.60;;;3.65;;
8478;SDS011;4276;49.354;6.804;2022-11-20T16:08:42;4.40;;;3.03;;
8478;SDS011;4276;49.354;6.804;2022-11-20T16:11:12;4.82;;;3.80;;
8478;SDS011;4276;49.354;6.804;2022-11-20T16:13:39;2.72;;;2.50;;
8478;SDS011;4276;49.354;6.804;2022-11-20T16:18:56;5.88;;;5.28;;
8478;SDS011;4276;49.354;6.804;2022-11-20T16:21:23;6.03;;;4.28;;
8478;SDS011;4276;49.354;6.804;2022-11-20T16:24:02;4.22;;;3.10;;
8478;SDS011;4276;49.354;6.804;2022-11-20T16:26:31;3.75;;;3.20;;
8478;SDS011;4276;49.354;6.804;2022-11-20T16:29:01;4.07;;;3.67;;
8478;SDS011;4276;49.354;6.804;2022-11-20T16:31:29;4.35;;;3.95;;
8478;SDS011;4276;49.354;6.804;2022-11-20T16:33:56;13.82;;;12.52;;
8478;SDS011;4276;49.354;6.804;2022-11-20T16:36:25;13.52;;;12.35;;
8478;SDS011;4276;49.354;6.804;2022-11-20T16:38:57;7.13;;;6.47;;
8478;SDS011;4276;49.354;6.804;2022-11-20T16:41:26;11.50;;;10.40;;
8478;SDS011;4276;49.354;6.804;2022-11-20T16:43:54;6.95;;;6.38;;
8478;SDS011;4276;49.354;6.804;2022-11-20T16:46:23;6.00;;;3.50;;
8478;SDS011;4276;49.354;6.804;2022-11-20T16:48:52;10.93;;;10.02;;
8478;SDS011;4276;49.354;6.804;2022-11-20T16:51:26;3.90;;;3.63;;
8478;SDS011;4276;49.354;6.804;2022-11-20T16:53:53;9.30;;;8.48;;
8478;SDS011;4276;49.354;6.804;2022-11-20T16:56:21;8.30;;;7.70;;
8478;SDS011;4276;49.354;6.804;2022-11-20T16:58:50;3.22;;;2.92;;
8478;SDS011;4276;49.354;6.804;2022-11-20T17:01:19;3.40;;;3.10;;
8478;SDS011;4276;49.354;6.804;2022-11-20T17:03:52;3.08;;;2.88;;
8478;SDS011;4276;49.354;6.804;2022-11-20T17:06:26;3.03;;;2.83;;
8478;SDS011;4276;49.354;6.804;2022-11-20T17:08:54;4.50;;;4.10;;
8478;SDS011;4276;49.354;6.804;2022-11-20T17:11:21;4.18;;;3.78;;
8478;SDS011;4276;49.354;6.804;2022-11-20T17:13:48;18.95;;;17.10;;
8478;SDS011;4276;49.354;6.804;2022-11-20T17:16:18;4.88;;;4.43;;
8478;SDS011;4276;49.354;6.804;2022-11-20T17:18:46;4.93;;;4.55;;
8478;SDS011;4276;49.354;6.804;2022-11-20T17:21:15;5.47;;;4.95;;
8478;SDS011;4276;49.354;6.804;2022-11-20T17:23:43;10.20;;;9.43;;
8478;SDS011;4276;49.354;6.804;2022-11-20T17:28:37;11.63;;;10.63;;
8478;SDS011;4276;49.354;6.804;2022-11-20T17:31:05;3.95;;;3.65;;
8478;SDS011;4276;49.354;6.804;2022-11-20T17:33:38;3.60;;;2.60;;
8478;SDS011;4276;49.354;6.804;2022-11-20T17:36:06;3.95;;;3.53;;
8478;SDS011;4276;49.354;6.804;2022-11-20T17:38:33;4.03;;;3.75;;
8478;SDS011;4276;49.354;6.804;2022-11-20T17:41:04;1.73;;;1.63;;